createdAt,value
2018-09-04T00:00:53.925Z,40.20
2018-09-04T00:01:59.437Z,39.30
2018-09-04T00:03:04.961Z,39.50
2018-09-04T00:04:10.471Z,39.60
2018-09-04T00:05:15.987Z,38.60
2018-09-04T00:06:21.506Z,40.30
2018-09-04T00:07:27.021Z,37.40
2018-09-04T00:08:32.536Z,36.30
2018-09-04T00:09:38.054Z,36.00
2018-09-04T00:10:43.572Z,34.90
2018-09-04T00:11:49.085Z,34.20
2018-09-04T00:12:54.604Z,34.30
2018-09-04T00:14:00.116Z,33.90
2018-09-04T00:15:05.628Z,34.20
2018-09-04T00:16:11.146Z,36.50
2018-09-04T00:17:16.666Z,36.40
2018-09-04T00:18:22.178Z,36.50
2018-09-04T00:19:27.698Z,35.00
2018-09-04T00:20:33.212Z,36.30
2018-09-04T00:21:38.723Z,36.70
2018-09-04T00:22:44.245Z,37.80
2018-09-04T00:23:49.756Z,37.10
2018-09-04T00:24:55.278Z,38.10
2018-09-04T00:26:00.791Z,40.80
2018-09-04T00:27:06.307Z,41.90
2018-09-04T00:28:11.823Z,40.50
2018-09-04T00:29:17.334Z,40.70
2018-09-04T00:30:22.857Z,38.70
2018-09-04T00:31:28.376Z,38.00
2018-09-04T00:32:33.885Z,37.80
2018-09-04T00:33:39.402Z,36.10
2018-09-04T00:34:44.916Z,36.40
2018-09-04T00:35:50.431Z,34.90
2018-09-04T00:36:55.945Z,34.50
2018-09-04T00:38:01.462Z,33.20
2018-09-04T00:39:06.977Z,33.30
2018-09-04T00:40:12.493Z,33.50
2018-09-04T00:41:18.013Z,37.70
2018-09-04T00:42:23.526Z,37.20
2018-09-04T00:43:29.043Z,38.90
2018-09-04T00:44:34.565Z,40.00
2018-09-04T00:45:40.075Z,40.70
2018-09-04T00:46:45.587Z,39.90
2018-09-04T00:47:51.108Z,36.10
2018-09-04T00:48:56.624Z,32.90
2018-09-04T00:50:02.145Z,32.10
2018-09-04T00:51:07.653Z,31.80
2018-09-04T00:52:13.168Z,32.40
2018-09-04T00:53:18.690Z,32.60
2018-09-04T00:54:24.200Z,32.90
2018-09-04T00:55:29.715Z,33.40
2018-09-04T00:56:35.227Z,33.90
2018-09-04T00:57:40.758Z,35.50
2018-09-04T00:58:46.263Z,33.90
2018-09-04T00:59:51.775Z,35.40
2018-09-04T01:00:57.292Z,36.70
2018-09-04T01:02:02.825Z,39.70
2018-09-04T01:03:08.322Z,38.60
2018-09-04T01:04:13.849Z,38.70
2018-09-04T01:05:19.359Z,40.10
2018-09-04T01:06:24.871Z,41.10
2018-09-04T01:07:30.390Z,41.00
2018-09-04T01:08:35.904Z,41.50
2018-09-04T01:09:41.417Z,40.00
2018-09-04T01:10:46.935Z,38.50
2018-09-04T01:11:52.449Z,38.70
2018-09-04T01:12:57.967Z,39.20
2018-09-04T01:14:03.479Z,38.90
2018-09-04T01:15:09.001Z,39.30
2018-09-04T01:16:14.513Z,39.50
2018-09-04T01:17:20.029Z,38.50
2018-09-04T01:18:25.545Z,38.60
2018-09-04T01:19:31.056Z,39.10
2018-09-04T01:20:36.577Z,38.70
2018-09-04T01:21:42.091Z,37.40
2018-09-04T01:22:47.611Z,36.40
2018-09-04T01:23:53.130Z,35.30
2018-09-04T01:24:58.637Z,34.60
2018-09-04T01:26:04.151Z,35.00
2018-09-04T01:27:09.671Z,35.20
2018-09-04T01:28:15.184Z,35.10
2018-09-04T01:29:20.699Z,37.00
2018-09-04T01:30:26.214Z,36.80
2018-09-04T01:31:31.735Z,36.40
2018-09-04T01:32:37.255Z,36.20
2018-09-04T01:33:42.767Z,34.70
2018-09-04T01:34:48.277Z,37.20
2018-09-04T01:35:53.793Z,37.00
2018-09-04T01:36:59.308Z,36.30
2018-09-04T01:38:04.823Z,37.20
2018-09-04T01:39:10.343Z,37.40
2018-09-04T01:40:15.853Z,38.80
2018-09-04T01:41:21.377Z,38.60
2018-09-04T01:42:26.896Z,39.10
2018-09-04T01:43:32.408Z,40.40
2018-09-04T01:44:37.928Z,39.60
2018-09-04T01:45:43.442Z,41.10
2018-09-04T01:46:48.951Z,40.90
2018-09-04T01:47:54.465Z,40.10
2018-09-04T01:48:59.979Z,41.80
2018-09-04T01:50:05.496Z,41.70
2018-09-04T01:51:11.012Z,41.60
2018-09-04T01:52:16.541Z,41.80
2018-09-04T01:53:22.042Z,38.80
2018-09-04T01:54:27.561Z,39.50
2018-09-04T01:55:33.077Z,39.80
2018-09-04T01:56:38.596Z,39.60
2018-09-04T01:57:44.106Z,37.80
2018-09-04T01:58:49.630Z,38.30
2018-09-04T01:59:55.148Z,38.30
2018-09-04T02:01:00.655Z,37.80
2018-09-04T02:02:06.170Z,37.80
2018-09-04T02:03:11.687Z,37.70
2018-09-04T02:04:17.200Z,39.10
2018-09-04T02:05:22.718Z,39.80
2018-09-04T02:06:28.238Z,39.40
2018-09-04T02:07:33.747Z,38.60
2018-09-04T02:08:39.260Z,37.00
2018-09-04T02:09:44.780Z,37.40
2018-09-04T02:10:50.292Z,38.00
2018-09-04T02:11:55.808Z,38.40
2018-09-04T02:13:01.324Z,38.50
2018-09-04T02:14:06.842Z,41.10
2018-09-04T02:15:12.355Z,41.10
2018-09-04T02:16:17.870Z,41.70
2018-09-04T02:17:23.391Z,42.60
2018-09-04T02:18:28.905Z,42.00
2018-09-04T02:19:34.420Z,43.90
2018-09-04T02:20:39.940Z,46.70
2018-09-04T02:21:45.445Z,40.10
2018-09-04T02:22:50.972Z,37.50
2018-09-04T02:23:56.479Z,37.40
2018-09-04T02:25:01.997Z,37.20
2018-09-04T02:26:07.513Z,36.00
2018-09-04T02:27:13.030Z,36.20
2018-09-04T02:28:18.544Z,36.00
2018-09-04T02:29:24.061Z,38.30
2018-09-04T02:30:29.580Z,38.60
2018-09-04T02:31:35.094Z,37.70
2018-09-04T02:32:40.603Z,37.50
2018-09-04T02:33:46.119Z,37.60
2018-09-04T02:34:51.638Z,37.70
2018-09-04T02:35:57.154Z,37.50
2018-09-04T02:37:02.668Z,36.70
2018-09-04T02:38:08.186Z,37.40
2018-09-04T02:39:13.698Z,38.00
2018-09-04T02:40:19.215Z,38.20
2018-09-04T02:41:24.730Z,36.40
2018-09-04T02:42:30.244Z,37.40
2018-09-04T02:43:35.764Z,36.40
2018-09-04T02:44:41.277Z,37.10
2018-09-04T02:45:46.790Z,37.90
2018-09-04T02:46:52.317Z,40.30
2018-09-04T02:47:57.828Z,38.60
2018-09-04T02:49:03.341Z,40.10
2018-09-04T02:50:08.857Z,39.40
2018-09-04T02:51:14.375Z,38.80
2018-09-04T02:52:19.888Z,39.30
2018-09-04T02:53:25.403Z,38.00
2018-09-04T02:54:30.920Z,38.40
2018-09-04T02:55:36.436Z,38.20
2018-09-04T02:56:41.952Z,40.40
2018-09-04T02:57:47.467Z,41.90
2018-09-04T02:58:52.981Z,40.00
2018-09-04T02:59:58.496Z,40.70
2018-09-04T03:01:04.010Z,40.90
2018-09-04T03:02:09.526Z,42.10
2018-09-04T03:03:15.045Z,42.80
2018-09-04T03:04:20.561Z,42.30
2018-09-04T03:05:26.080Z,41.80
2018-09-04T03:06:31.594Z,45.10
2018-09-04T03:07:37.108Z,43.10
2018-09-04T03:08:42.627Z,42.50
2018-09-04T03:09:48.145Z,82.00
2018-09-04T03:10:53.653Z,42.80
2018-09-04T03:11:59.171Z,43.20
2018-09-04T03:13:04.692Z,41.00
2018-09-04T03:14:10.202Z,41.00
2018-09-04T03:15:15.731Z,39.50
2018-09-04T03:16:21.234Z,40.50
2018-09-04T03:17:26.748Z,40.70
2018-09-04T03:18:32.265Z,40.70
2018-09-04T03:19:37.784Z,42.20
2018-09-04T03:20:43.294Z,41.30
2018-09-04T03:21:48.811Z,43.20
2018-09-04T03:22:54.329Z,41.50
2018-09-04T03:23:59.849Z,41.40
2018-09-04T03:25:05.355Z,42.20
2018-09-04T03:26:10.878Z,42.00
2018-09-04T03:27:16.391Z,43.90
2018-09-04T03:28:21.904Z,44.70
2018-09-04T03:29:27.423Z,41.80
2018-09-04T03:30:32.937Z,42.80
2018-09-04T03:31:38.455Z,41.90
2018-09-04T03:32:43.968Z,43.50
2018-09-04T03:33:49.484Z,44.20
2018-09-04T03:34:54.998Z,43.10
2018-09-04T03:36:00.516Z,43.20
2018-09-04T03:37:06.028Z,41.90
2018-09-04T03:38:11.546Z,41.50
2018-09-04T03:39:17.063Z,41.10
2018-09-04T03:40:22.576Z,39.20
2018-09-04T03:41:28.091Z,39.50
2018-09-04T03:42:33.646Z,39.70
2018-09-04T03:43:39.128Z,39.70
2018-09-04T03:44:44.644Z,39.10
2018-09-04T03:45:50.159Z,38.50
2018-09-04T03:46:55.672Z,37.90
2018-09-04T03:48:01.188Z,38.60
2018-09-04T03:49:06.702Z,38.10
2018-09-04T03:50:12.220Z,37.20
2018-09-04T03:51:17.738Z,38.50
2018-09-04T03:52:23.253Z,39.10
2018-09-04T03:53:28.762Z,40.30
2018-09-04T03:54:34.276Z,41.00
2018-09-04T03:55:39.804Z,40.60
2018-09-04T03:56:45.316Z,41.00
2018-09-04T03:57:50.826Z,41.10
2018-09-04T03:58:56.344Z,40.40
2018-09-04T04:00:01.864Z,40.90
2018-09-04T04:01:07.371Z,40.10
2018-09-04T04:02:12.886Z,42.10
2018-09-04T04:03:18.403Z,41.80
2018-09-04T04:04:23.917Z,43.50
2018-09-04T04:05:29.443Z,37.30
2018-09-04T04:06:34.955Z,37.30
2018-09-04T04:07:40.467Z,36.90
2018-09-04T04:08:45.983Z,37.00
2018-09-04T04:09:51.498Z,144.20
2018-09-04T04:10:57.015Z,44.90
2018-09-04T04:12:02.624Z,47.50
2018-09-04T04:13:08.041Z,38.80
2018-09-04T04:14:13.560Z,37.70
2018-09-04T04:15:19.080Z,156.00
2018-09-04T04:16:24.594Z,39.30
2018-09-04T04:17:30.106Z,52.80
2018-09-04T04:18:35.622Z,49.10
2018-09-04T04:19:41.141Z,39.30
2018-09-04T04:20:46.654Z,36.70
2018-09-04T04:21:52.164Z,37.00
2018-09-04T04:22:57.687Z,37.40
2018-09-04T04:24:03.281Z,36.50
2018-09-04T04:25:08.719Z,39.80
2018-09-04T04:26:14.229Z,36.50
2018-09-04T04:27:19.741Z,56.50
2018-09-04T04:28:25.259Z,54.00
2018-09-04T04:29:30.774Z,72.50
2018-09-04T04:30:36.295Z,82.50
2018-09-04T04:31:41.803Z,37.20
2018-09-04T04:32:47.316Z,37.00
2018-09-04T04:33:52.835Z,39.30
2018-09-04T04:34:58.349Z,55.80
2018-09-04T04:36:03.864Z,38.30
2018-09-04T04:37:09.377Z,158.10
2018-09-04T04:38:14.897Z,38.40
2018-09-04T04:39:20.409Z,81.90
2018-09-04T04:40:25.926Z,37.80
2018-09-04T04:41:31.438Z,37.80
2018-09-04T04:42:36.955Z,37.30
2018-09-04T04:43:42.472Z,37.10
2018-09-04T04:44:47.988Z,89.90
2018-09-04T04:45:53.500Z,37.50
2018-09-04T04:46:59.017Z,49.20
2018-09-04T04:48:04.547Z,57.30
2018-09-04T04:49:10.055Z,39.60
2018-09-04T04:50:15.566Z,40.30
2018-09-04T04:51:21.078Z,40.90
2018-09-04T04:52:26.593Z,41.70
2018-09-04T04:53:32.111Z,94.00
2018-09-04T04:54:37.620Z,105.20
2018-09-04T04:55:43.134Z,36.80
2018-09-04T04:56:48.652Z,36.90
2018-09-04T04:57:54.177Z,35.70
2018-09-04T04:58:59.686Z,34.70
2018-09-04T05:00:05.194Z,37.80
2018-09-04T05:01:10.714Z,36.50
2018-09-04T05:02:16.237Z,36.70
2018-09-04T05:03:21.744Z,50.90
2018-09-04T05:04:27.257Z,38.70
2018-09-04T05:05:32.778Z,39.30
2018-09-04T05:06:38.294Z,38.50
2018-09-04T05:07:43.804Z,40.20
2018-09-04T05:08:49.315Z,38.50
2018-09-04T05:09:54.831Z,39.50
2018-09-04T05:11:00.395Z,41.60
2018-09-04T05:12:05.863Z,36.80
2018-09-04T05:13:11.377Z,37.50
2018-09-04T05:14:16.894Z,37.40
2018-09-04T05:15:22.410Z,38.00
2018-09-04T05:16:27.922Z,39.70
2018-09-04T05:17:33.441Z,39.90
2018-09-04T05:18:38.955Z,39.90
2018-09-04T05:19:44.467Z,42.60
2018-09-04T05:20:49.979Z,40.60
2018-09-04T05:21:55.533Z,40.40
2018-09-04T05:23:01.013Z,41.10
2018-09-04T05:24:06.527Z,43.40
2018-09-04T05:25:12.045Z,42.80
2018-09-04T05:26:17.555Z,42.50
2018-09-04T05:27:23.075Z,41.80
2018-09-04T05:28:28.587Z,41.70
2018-09-04T05:29:34.170Z,40.90
2018-09-04T05:30:39.627Z,41.60
2018-09-04T05:31:45.132Z,43.80
2018-09-04T05:32:50.647Z,40.10
2018-09-04T05:33:56.166Z,39.60
2018-09-04T05:35:01.685Z,37.90
2018-09-04T05:36:07.194Z,38.00
2018-09-04T05:37:12.711Z,37.40
2018-09-04T05:38:18.223Z,38.50
2018-09-04T05:39:23.740Z,38.60
2018-09-04T05:40:29.255Z,41.10
2018-09-04T05:41:34.767Z,40.00
2018-09-04T05:42:40.281Z,38.30
2018-09-04T05:43:45.797Z,39.60
2018-09-04T05:44:51.323Z,38.30
2018-09-04T05:45:56.829Z,37.90
2018-09-04T05:47:02.344Z,38.70
2018-09-04T05:48:07.855Z,39.20
2018-09-04T05:49:13.379Z,41.10
2018-09-04T05:50:18.885Z,40.30
2018-09-04T05:51:24.403Z,40.70
2018-09-04T05:52:29.918Z,41.70
2018-09-04T05:53:35.433Z,40.60
2018-09-04T05:54:40.947Z,40.20
2018-09-04T05:55:46.465Z,41.50
2018-09-04T05:56:51.978Z,41.10
2018-09-04T05:57:57.493Z,41.70
2018-09-04T05:59:03.013Z,43.40
2018-09-04T06:00:08.522Z,42.90
2018-09-04T06:01:14.035Z,42.80
2018-09-04T06:02:19.549Z,43.80
2018-09-04T06:03:25.069Z,43.60
2018-09-04T06:04:30.583Z,41.70
2018-09-04T06:05:36.099Z,39.70
2018-09-04T06:06:41.611Z,40.60
2018-09-04T06:07:47.138Z,42.60
2018-09-04T06:08:52.640Z,45.40
2018-09-04T06:09:58.155Z,49.30
2018-09-04T06:11:03.676Z,48.70
2018-09-04T06:12:09.186Z,51.90
2018-09-04T06:13:14.703Z,50.80
2018-09-04T06:14:20.214Z,49.40
2018-09-04T06:15:25.734Z,48.70
2018-09-04T06:16:31.249Z,43.70
2018-09-04T06:17:36.762Z,42.60
2018-09-04T06:18:42.278Z,42.60
2018-09-04T06:19:47.793Z,46.40
2018-09-04T06:20:53.310Z,48.90
2018-09-04T06:21:58.825Z,50.70
2018-09-04T06:23:04.339Z,52.10
2018-09-04T06:24:09.856Z,53.60
2018-09-04T06:25:15.385Z,51.60
2018-09-04T06:26:20.881Z,51.50
2018-09-04T06:27:26.396Z,48.60
2018-09-04T06:28:31.915Z,48.60
2018-09-04T06:29:37.520Z,48.20
2018-09-04T06:30:42.950Z,48.10
2018-09-04T06:31:48.461Z,48.10
2018-09-04T06:32:53.980Z,48.90
2018-09-04T06:33:59.510Z,49.10
2018-09-04T06:35:05.008Z,49.70
2018-09-04T06:36:10.519Z,49.60
2018-09-04T06:37:16.052Z,49.70
2018-09-04T06:38:21.556Z,49.70
2018-09-04T06:39:27.068Z,50.00
2018-09-04T06:40:32.581Z,51.10
2018-09-04T06:41:38.101Z,48.30
2018-09-04T06:42:43.616Z,49.70
2018-09-04T06:43:49.131Z,49.90
2018-09-04T06:44:54.652Z,49.00
2018-09-04T06:46:00.163Z,51.00
2018-09-04T06:47:05.678Z,48.20
2018-09-04T06:48:11.197Z,49.00
2018-09-04T06:49:16.711Z,49.40
2018-09-04T06:50:22.225Z,48.80
2018-09-04T06:51:27.736Z,47.00
2018-09-04T06:52:33.251Z,49.00
2018-09-04T06:53:38.770Z,47.70
2018-09-04T06:54:44.368Z,48.80
2018-09-04T06:55:49.804Z,47.20
2018-09-04T06:56:55.316Z,48.50
2018-09-04T06:58:01.023Z,48.40
2018-09-04T06:59:06.352Z,47.40
2018-09-04T07:00:11.863Z,49.10
2018-09-04T07:01:17.380Z,51.20
2018-09-04T07:02:22.896Z,50.80
2018-09-04T07:03:28.417Z,50.00
2018-09-04T07:04:33.928Z,49.00
2018-09-04T07:05:39.454Z,50.90
2018-09-04T07:06:44.958Z,52.60
2018-09-04T07:07:50.476Z,51.60
2018-09-04T07:08:55.992Z,51.60
2018-09-04T07:10:01.506Z,52.10
2018-09-04T07:11:07.024Z,52.90
2018-09-04T07:12:12.541Z,53.70
2018-09-04T07:13:18.053Z,52.00
2018-09-04T07:14:23.572Z,52.10
2018-09-04T07:15:29.085Z,52.70
2018-09-04T07:16:34.601Z,51.70
2018-09-04T07:17:40.118Z,50.10
2018-09-04T07:18:45.636Z,53.80
2018-09-04T07:19:51.151Z,54.00
2018-09-04T07:20:56.664Z,52.90
2018-09-04T07:22:02.186Z,51.40
2018-09-04T07:23:07.697Z,55.00
2018-09-04T07:24:13.215Z,54.60
2018-09-04T07:25:18.729Z,57.60
2018-09-04T07:26:24.244Z,54.50
2018-09-04T07:27:29.768Z,60.10
2018-09-04T07:28:35.280Z,56.60
2018-09-04T07:29:40.796Z,54.80
2018-09-04T07:30:46.311Z,62.70
2018-09-04T07:31:51.839Z,66.80
2018-09-04T07:32:57.342Z,66.30
2018-09-04T07:34:02.864Z,65.80
2018-09-04T07:35:08.377Z,61.90
2018-09-04T07:36:13.902Z,61.10
2018-09-04T07:37:19.405Z,67.70
2018-09-04T07:38:24.923Z,69.70
2018-09-04T07:39:30.443Z,70.30
2018-09-04T07:40:35.957Z,71.00
2018-09-04T07:41:41.477Z,67.50
2018-09-04T07:42:47.002Z,67.80
2018-09-04T07:43:52.512Z,68.20
2018-09-04T07:44:58.023Z,66.80
2018-09-04T07:46:03.541Z,66.90
2018-09-04T07:47:09.058Z,65.50
2018-09-04T07:48:14.580Z,63.30
2018-09-04T07:49:20.091Z,61.70
2018-09-04T07:50:25.604Z,63.20
2018-09-04T07:51:31.124Z,63.30
2018-09-04T07:52:36.648Z,63.50
2018-09-04T07:53:42.212Z,68.60
2018-09-04T07:54:47.675Z,68.90
2018-09-04T07:55:53.191Z,70.60
2018-09-04T07:56:58.718Z,69.20
2018-09-04T07:58:04.224Z,71.80
2018-09-04T07:59:09.749Z,70.00
2018-09-04T08:00:15.267Z,73.50
2018-09-04T08:01:20.780Z,73.10
2018-09-04T08:02:26.291Z,75.80
2018-09-04T08:03:31.807Z,76.50
2018-09-04T08:04:37.327Z,70.20
2018-09-04T08:05:42.848Z,78.00
2018-09-04T08:06:48.362Z,67.40
2018-09-04T08:07:53.877Z,79.20
2018-09-04T08:08:59.408Z,75.30
2018-09-04T08:10:04.956Z,76.30
2018-09-04T08:11:10.430Z,76.70
2018-09-04T08:12:15.947Z,73.10
2018-09-04T08:13:21.470Z,75.30
2018-09-04T08:14:26.978Z,74.70
2018-09-04T08:15:32.499Z,75.20
2018-09-04T08:16:38.015Z,75.90
2018-09-04T08:17:43.597Z,76.30
2018-09-04T08:18:49.049Z,73.90
2018-09-04T08:19:54.567Z,76.30
2018-09-04T08:21:00.143Z,76.40
2018-09-04T08:22:05.605Z,75.00
2018-09-04T08:23:11.119Z,72.90
2018-09-04T08:24:16.639Z,72.70
2018-09-04T08:25:22.153Z,74.00
2018-09-04T08:26:27.671Z,73.70
2018-09-04T08:27:33.190Z,75.10
2018-09-04T08:28:38.708Z,73.60
2018-09-04T08:29:44.220Z,72.40
2018-09-04T08:30:49.744Z,73.50
2018-09-04T08:31:55.260Z,73.00
2018-09-04T08:33:00.798Z,73.90
2018-09-04T08:34:06.298Z,73.50
2018-09-04T08:35:11.819Z,69.50
2018-09-04T08:36:17.327Z,71.50
2018-09-04T08:37:22.848Z,70.60
2018-09-04T08:38:28.365Z,70.00
2018-09-04T08:39:33.883Z,75.90
2018-09-04T08:40:39.404Z,53.10
2018-09-04T08:41:44.918Z,60.10
2018-09-04T08:42:50.434Z,57.20
2018-09-04T08:43:55.955Z,58.50
2018-09-04T08:45:01.473Z,62.40
2018-09-04T08:46:07.000Z,73.70
2018-09-04T08:47:12.526Z,60.50
2018-09-04T08:48:18.027Z,73.60
2018-09-04T08:49:23.548Z,74.20
2018-09-04T08:50:29.121Z,75.70
2018-09-04T08:51:34.581Z,63.70
2018-09-04T08:52:40.099Z,64.50
2018-09-04T08:53:45.634Z,64.30
2018-09-04T08:54:51.139Z,72.80
2018-09-04T08:55:56.653Z,71.60
2018-09-04T08:57:02.172Z,68.40
2018-09-04T08:58:07.689Z,65.80
2018-09-04T08:59:13.223Z,65.90
2018-09-04T09:00:18.728Z,62.10
2018-09-04T09:01:24.243Z,48.30
2018-09-04T09:02:29.763Z,68.50
2018-09-04T09:03:35.286Z,69.20
2018-09-04T09:04:40.819Z,68.10
2018-09-04T09:05:46.320Z,71.80
2018-09-04T09:06:51.841Z,67.20
2018-09-04T09:07:57.350Z,65.00
2018-09-04T09:09:02.880Z,54.10
2018-09-04T09:10:08.480Z,69.00
2018-09-04T09:11:13.909Z,62.30
2018-09-04T09:12:19.425Z,70.50
2018-09-04T09:13:24.947Z,65.60
2018-09-04T09:14:30.472Z,68.50
2018-09-04T09:15:35.982Z,64.90
2018-09-04T09:16:41.562Z,65.70
2018-09-04T09:17:47.017Z,66.70
2018-09-04T09:18:52.537Z,65.10
2018-09-04T09:19:58.054Z,65.40
2018-09-04T09:21:03.579Z,60.70
2018-09-04T09:22:09.089Z,62.20
2018-09-04T09:23:14.617Z,61.80
2018-09-04T09:24:20.131Z,63.90
2018-09-04T09:25:25.646Z,63.40
2018-09-04T09:26:31.178Z,61.60
2018-09-04T09:27:36.687Z,63.40
2018-09-04T09:28:42.206Z,64.30
2018-09-04T09:29:47.722Z,63.50
2018-09-04T09:30:53.235Z,63.50
2018-09-04T09:31:58.757Z,64.80
2018-09-04T09:33:04.273Z,64.80
2018-09-04T09:34:09.794Z,65.80
2018-09-04T09:35:15.378Z,64.70
2018-09-04T09:36:20.837Z,64.50
2018-09-04T09:37:26.358Z,63.40
2018-09-04T09:38:31.869Z,63.60
2018-09-04T09:39:37.387Z,63.40
2018-09-04T09:40:42.905Z,61.30
2018-09-04T09:41:48.428Z,58.80
2018-09-04T09:42:53.943Z,63.30
2018-09-04T09:43:59.467Z,61.80
2018-09-04T09:45:04.988Z,60.70
2018-09-04T09:46:10.495Z,61.70
2018-09-04T09:47:16.022Z,62.10
2018-09-04T09:48:21.535Z,64.50
2018-09-04T09:49:27.055Z,61.80
2018-09-04T09:50:32.580Z,60.70
2018-09-04T09:51:38.091Z,62.30
2018-09-04T09:52:43.767Z,59.70
2018-09-04T09:53:49.128Z,61.60
2018-09-04T09:54:54.645Z,61.70
2018-09-04T09:56:00.169Z,61.70
2018-09-04T09:57:05.691Z,60.50
2018-09-04T09:58:11.208Z,62.30
2018-09-04T09:59:16.726Z,63.80
2018-09-04T10:00:22.238Z,63.00
2018-09-04T10:01:27.757Z,61.40
2018-09-04T10:02:33.274Z,61.00
2018-09-04T10:03:38.797Z,59.90
2018-09-04T10:04:44.311Z,60.70
2018-09-04T10:05:49.852Z,60.60
2018-09-04T10:06:55.361Z,60.80
2018-09-04T10:08:00.923Z,62.00
2018-09-04T10:09:06.389Z,61.20
2018-09-04T10:10:11.977Z,61.10
2018-09-04T10:11:17.426Z,59.20
2018-09-04T10:12:22.946Z,59.20
2018-09-04T10:13:28.463Z,60.70
2018-09-04T10:16:18.379Z,58.60
2018-09-04T10:17:31.157Z,61.00
2018-09-04T10:18:22.255Z,60.40
2018-09-04T10:20:37.324Z,58.80
2018-09-04T10:22:49.533Z,51.90
2018-09-04T10:24:06.744Z,55.70
2018-09-04T10:24:53.644Z,56.10
2018-09-04T10:26:11.163Z,57.40
2018-09-04T10:28:30.943Z,55.70
2018-09-04T10:29:43.345Z,54.50
2018-09-04T10:30:47.453Z,56.60
2018-09-04T10:32:12.037Z,55.20
2018-09-04T10:32:56.996Z,55.70
2018-09-04T10:34:05.297Z,58.20
2018-09-04T10:34:45.951Z,52.30
2018-09-04T10:35:58.761Z,52.40
2018-09-04T10:37:07.473Z,54.10
2018-09-04T10:38:38.520Z,55.40
2018-09-04T10:39:31.565Z,55.50
2018-09-04T10:40:16.513Z,52.50
2018-09-04T10:44:38.873Z,49.00
2018-09-04T10:45:51.891Z,50.60
2018-09-04T10:46:55.991Z,47.20
2018-09-04T10:47:59.887Z,51.20
2018-09-04T10:49:10.147Z,49.40
2018-09-04T10:51:10.367Z,47.60
2018-09-04T10:52:15.902Z,47.30
2018-09-04T10:53:33.320Z,46.80
2018-09-04T10:56:35.749Z,44.30
2018-09-04T10:57:46.456Z,45.40
2018-09-04T10:58:56.724Z,44.60
2018-09-04T10:59:55.605Z,43.80
2018-09-04T11:02:19.080Z,44.50
2018-09-04T11:03:07.104Z,44.40
2018-09-04T11:04:10.068Z,44.30
2018-09-04T11:06:27.089Z,42.80
2018-09-04T11:07:33.345Z,42.70
2018-09-04T11:08:32.546Z,43.60
2018-09-04T11:10:46.682Z,41.90
2018-09-04T11:12:07.688Z,40.80
2018-09-04T11:13:09.844Z,39.00
2018-09-04T11:14:13.027Z,39.90
2018-09-04T11:16:28.917Z,36.10
2018-09-04T11:19:35.804Z,38.50
2018-09-04T11:20:47.489Z,38.80
2018-09-04T11:21:44.425Z,39.00
2018-09-04T11:22:55.596Z,38.30
2018-09-04T11:23:49.374Z,38.40
2018-09-04T11:24:54.798Z,35.40
2018-09-04T11:26:20.406Z,37.10
2018-09-04T11:27:41.208Z,35.30
2018-09-04T11:28:15.815Z,34.80
2018-09-04T11:31:45.228Z,38.10
2018-09-04T11:32:39.706Z,37.00
2018-09-04T11:33:51.606Z,36.40
2018-09-04T11:34:54.882Z,40.80
2018-09-04T11:36:07.420Z,40.30
2018-09-04T11:37:04.426Z,41.90
2018-09-04T11:38:01.776Z,41.30
2018-09-04T11:39:09.259Z,40.00
2018-09-04T11:40:19.814Z,39.60
2018-09-04T11:41:20.129Z,39.80
2018-09-04T11:43:27.834Z,39.00
2018-09-04T11:44:35.721Z,37.90
2018-09-04T11:45:48.428Z,37.10
2018-09-04T11:46:44.547Z,38.20
2018-09-04T11:48:02.782Z,38.10
2018-09-04T11:50:07.716Z,37.40
2018-09-04T11:51:16.430Z,37.70
2018-09-04T11:52:11.726Z,38.10
2018-09-04T11:53:26.889Z,38.30
2018-09-04T11:54:26.076Z,38.20
2018-09-04T11:55:29.261Z,37.70
2018-09-04T11:56:49.788Z,37.00
2018-09-04T11:57:40.442Z,37.00
2018-09-04T11:58:52.538Z,36.30
2018-09-04T12:00:07.287Z,35.00
2018-09-04T12:00:56.450Z,34.80
2018-09-04T12:02:08.974Z,35.60
2018-09-04T12:03:09.567Z,34.00
2018-09-04T12:06:28.394Z,32.90
2018-09-04T12:07:32.545Z,31.60
2018-09-04T12:08:32.346Z,32.80
2018-09-04T12:09:35.433Z,30.40
2018-09-04T12:12:02.381Z,32.40
2018-09-04T12:12:56.595Z,32.40
2018-09-04T12:15:30.569Z,34.10
2018-09-04T12:16:31.291Z,33.10
2018-09-04T12:17:40.214Z,34.60
2018-09-04T12:18:20.865Z,32.50
2018-09-04T12:20:09.826Z,33.20
2018-09-04T12:20:41.705Z,33.80
2018-09-04T12:21:55.814Z,32.60
2018-09-04T12:24:11.306Z,29.90
2018-09-04T12:24:55.960Z,30.90
2018-09-04T12:26:02.099Z,30.50
2018-09-04T12:27:26.383Z,29.70
2018-09-04T12:29:17.996Z,30.70
2018-09-04T12:30:40.635Z,30.80
2018-09-04T12:33:41.992Z,31.20
2018-09-04T12:35:08.016Z,33.20
2018-09-04T12:36:08.120Z,32.10
2018-09-04T12:37:43.767Z,31.40
2018-09-04T12:39:22.997Z,28.40
2018-09-04T12:40:32.632Z,28.50
2018-09-04T12:42:41.563Z,28.50
2018-09-04T12:43:29.792Z,26.60
2018-09-04T12:44:33.705Z,28.10
2018-09-04T12:45:48.139Z,28.50
2018-09-04T12:47:10.268Z,27.50
2018-09-04T12:47:58.044Z,27.50
2018-09-04T12:49:17.046Z,27.60
2018-09-04T12:51:20.149Z,26.90
2018-09-04T12:52:43.590Z,26.50
2018-09-04T12:54:28.990Z,24.80
2018-09-04T12:55:30.102Z,27.70
2018-09-04T12:56:57.666Z,26.80
2018-09-04T12:58:04.321Z,26.80
2018-09-04T13:00:10.177Z,26.30
2018-09-04T13:01:02.507Z,24.20
2018-09-04T13:02:03.538Z,23.00
2018-09-04T13:03:23.413Z,21.60
2018-09-04T13:04:48.008Z,21.30
2018-09-04T13:05:22.614Z,21.10
2018-09-04T13:07:44.139Z,21.30
2018-09-04T13:09:41.083Z,21.70
2018-09-04T13:10:54.511Z,22.20
2018-09-04T13:11:53.185Z,20.90
2018-09-04T13:13:14.904Z,19.30
2018-09-04T13:14:10.406Z,19.90
2018-09-04T13:15:16.764Z,19.50
2018-09-04T13:16:23.131Z,19.70
2018-09-04T13:17:37.771Z,18.90
2018-09-04T13:18:39.113Z,19.00
2018-09-04T13:19:38.813Z,17.80
2018-09-04T13:20:52.543Z,17.40
2018-09-04T13:21:47.235Z,18.20
2018-09-04T13:22:57.582Z,17.40
2018-09-04T13:24:08.443Z,17.70
2018-09-04T13:25:21.662Z,18.40
2018-09-04T13:27:15.843Z,17.90
2018-09-04T13:31:36.255Z,21.80
2018-09-04T13:32:53.366Z,25.30
2018-09-04T13:34:02.798Z,24.80
2018-09-04T13:35:10.277Z,24.40
2018-09-04T13:36:05.073Z,23.40
2018-09-04T13:38:09.486Z,22.40
2018-09-04T13:39:15.949Z,23.70
2018-09-04T13:40:38.381Z,22.80
2018-09-04T13:41:25.691Z,22.80
2018-09-04T13:42:39.625Z,22.00
2018-09-04T13:43:43.123Z,23.20
2018-09-04T13:44:42.511Z,22.40
2018-09-04T13:45:51.123Z,24.30
2018-09-04T13:48:02.312Z,22.60
2018-09-04T13:49:08.690Z,24.80
2018-09-04T13:50:13.481Z,24.10
2018-09-04T13:52:32.444Z,24.80
2018-09-04T13:54:35.943Z,25.90
2018-09-04T13:57:56.560Z,28.00
2018-09-04T13:59:07.207Z,27.70
2018-09-04T14:00:04.259Z,28.10
2018-09-04T14:01:20.030Z,27.10
2018-09-04T14:02:23.313Z,29.50
2018-09-04T14:03:30.388Z,29.90
2018-09-04T14:04:31.791Z,28.20
2018-09-04T14:05:47.096Z,27.10
2018-09-04T14:06:32.869Z,27.50
2018-09-04T14:08:55.927Z,28.00
2018-09-04T14:10:05.562Z,31.30
2018-09-04T14:11:01.942Z,32.40
2018-09-04T14:12:04.863Z,33.40
2018-09-04T14:13:06.203Z,35.90
2018-09-04T14:15:24.347Z,34.10
2018-09-04T14:16:43.038Z,32.90
2018-09-04T14:17:30.607Z,29.50
2018-09-04T14:18:40.860Z,32.40
2018-09-04T14:19:51.411Z,30.20
2018-09-04T14:20:53.182Z,30.30
2018-09-04T14:21:59.109Z,25.60
2018-09-04T14:23:00.048Z,22.00
2018-09-04T14:24:04.860Z,20.70
2018-09-04T14:25:19.135Z,19.10
2018-09-04T14:27:25.879Z,18.60
2018-09-04T14:28:40.838Z,17.60
2018-09-04T14:29:53.155Z,18.40
2018-09-04T14:30:39.737Z,18.70
2018-09-04T14:31:49.590Z,17.70
2018-09-04T14:32:55.209Z,18.40
2018-09-04T14:33:46.717Z,17.30
2018-09-04T14:34:58.198Z,17.20
2018-09-04T14:36:09.447Z,18.70
2018-09-04T14:37:35.596Z,17.60
2018-09-04T14:38:17.899Z,17.10
2018-09-04T14:39:29.069Z,17.60
2018-09-04T14:40:33.888Z,17.20
2018-09-04T14:41:57.440Z,17.10
2018-09-04T14:42:49.384Z,16.70
2018-09-04T14:44:48.067Z,16.50
2018-09-04T14:45:58.701Z,16.90
2018-09-04T14:46:56.257Z,17.60
2018-09-04T14:48:12.131Z,17.90
2018-09-04T14:49:14.704Z,17.70
2018-09-04T14:50:29.468Z,18.10
2018-09-04T14:51:34.592Z,18.30
2018-09-04T14:53:45.056Z,17.60
2018-09-04T14:54:33.386Z,16.60
2018-09-04T14:55:50.090Z,17.00
2018-09-04T14:56:46.011Z,16.60
2018-09-04T14:57:56.560Z,16.40
2018-09-04T14:58:55.541Z,15.90